Time;durP1;ratioP1;P1;durP2;ratioP2;P2;SDS_P1;SDS_P2;PMS_P1;PMS_P2;Temp;Humidity;BMP_temperature;BMP_pressure;BME280_temperature;BME280_humidity;BME280_pressure;Samples;Min_cycle;Max_cycle;Signal;HPM_P1;HPM_P2
2023/05/07 00:00:54;;;;;;;18.50;15.50;;;15.10;59.30;;;;;;4998672;28;114225;-82
2023/05/07 00:03:22;;;;;;;15.95;13.30;;;15.10;58.10;;;;;;5000449;28;114245;-81
2023/05/07 00:05:51;;;;;;;14.52;12.98;;;15.10;58.80;;;;;;4999402;28;115330;-82
2023/05/07 00:08:19;;;;;;;15.52;13.93;;;15.00;58.90;;;;;;4978905;28;114626;-82
2023/05/07 00:10:46;;;;;;;14.98;13.30;;;14.90;58.50;;;;;;4978112;28;114731;-80
2023/05/07 00:13:13;;;;;;;14.07;12.57;;;14.90;58.20;;;;;;4980746;28;114163;-81
2023/05/07 00:15:40;;;;;;;15.27;13.00;;;14.90;59.00;;;;;;4969569;28;119290;-82
2023/05/07 00:18:07;;;;;;;15.32;12.75;;;14.90;58.20;;;;;;4995975;28;115222;-81
2023/05/07 00:20:34;;;;;;;14.35;12.48;;;15.00;57.90;;;;;;4993358;28;114668;-80
2023/05/07 00:23:03;;;;;;;13.20;11.88;;;15.00;57.90;;;;;;4989090;28;114342;-81
2023/05/07 00:25:30;;;;;;;15.52;13.15;;;14.90;58.40;;;;;;4997231;28;117616;-80
2023/05/07 00:28:03;;;;;;;14.77;12.57;;;14.90;58.60;;;;;;5000275;28;114699;-81
2023/05/07 00:30:30;;;;;;;14.65;12.50;;;15.00;58.70;;;;;;4984878;28;114503;-80
2023/05/07 00:32:57;;;;;;;13.85;11.55;;;15.00;56.80;;;;;;4982728;28;114395;-80
2023/05/07 00:35:26;;;;;;;13.77;11.98;;;14.90;57.00;;;;;;4996447;28;114897;-81
2023/05/07 00:37:53;;;;;;;13.65;11.75;;;14.90;57.10;;;;;;4998898;28;115863;-80
2023/05/07 00:40:20;;;;;;;13.57;11.20;;;14.90;57.80;;;;;;5016433;28;114569;-81
2023/05/07 00:42:48;;;;;;;13.02;11.63;;;14.90;56.70;;;;;;5001162;28;114424;-80
2023/05/07 00:45:16;;;;;;;14.10;12.45;;;14.80;57.90;;;;;;5000301;28;115768;-81
2023/05/07 00:47:43;;;;;;;13.73;12.32;;;14.80;58.10;;;;;;4999795;28;115666;-81
2023/05/07 00:50:12;;;;;;;14.43;12.93;;;14.80;58.50;;;;;;4999885;28;114342;-81
2023/05/07 00:52:42;;;;;;;13.05;11.63;;;14.80;56.90;;;;;;4998623;28;114609;-80
2023/05/07 00:55:09;;;;;;;14.32;11.43;;;14.70;58.30;;;;;;4998286;28;115327;-81
2023/05/07 00:57:37;;;;;;;13.90;12.32;;;14.60;58.50;;;;;;4998767;28;116892;-81
2023/05/07 01:00:05;;;;;;;15.50;12.93;;;14.50;58.10;;;;;;5001056;28;115683;-82
2023/05/07 01:02:32;;;;;;;14.35;12.80;;;14.40;57.40;;;;;;4993729;28;114582;-82
2023/05/07 01:05:00;;;;;;;14.50;12.98;;;14.30;57.40;;;;;;5003399;28;114979;-81
2023/05/07 01:07:28;;;;;;;14.20;12.70;;;14.30;58.30;;;;;;5004275;28;117194;-82
2023/05/07 01:09:59;;;;;;;14.15;12.65;;;14.20;58.20;;;;;;5008218;28;114552;-81
2023/05/07 01:12:28;;;;;;;14.10;12.55;;;14.20;58.70;;;;;;4950352;28;115127;-81
2023/05/07 01:14:56;;;;;;;13.95;12.20;;;14.20;58.10;;;;;;4999238;28;114592;-81
2023/05/07 01:17:23;;;;;;;14.40;12.32;;;14.10;59.20;;;;;;4983600;28;115190;-82
2023/05/07 01:19:52;;;;;;;16.55;12.50;;;14.10;58.00;;;;;;5019967;28;114837;-81
2023/05/07 01:22:31;;;;;;;14.55;12.98;;;14.00;59.40;;;;;;4985357;28;114552;-81
2023/05/07 01:24:59;;;;;;;17.90;15.63;;;14.10;59.10;;;;;;4981875;28;115072;-81
2023/05/07 01:27:28;;;;;;;16.02;14.27;;;13.90;58.70;;;;;;4982443;28;116290;-81
2023/05/07 01:29:55;;;;;;;15.77;14.13;;;13.90;59.10;;;;;;4984810;28;114516;-82
2023/05/07 01:32:34;;;;;;;17.95;15.70;;;13.80;59.70;;;;;;5002926;28;114439;-82
2023/05/07 01:35:02;;;;;;;15.50;13.75;;;13.90;59.40;;;;;;4985247;28;116613;-81
2023/05/07 01:37:29;;;;;;;17.13;15.32;;;13.90;60.30;;;;;;4984531;28;115602;-82
2023/05/07 01:39:56;;;;;;;16.90;13.25;;;13.90;59.40;;;;;;4999201;28;114997;-82
2023/05/07 01:42:23;;;;;;;16.52;13.63;;;14.00;60.40;;;;;;4963844;28;119010;-82
2023/05/07 01:44:50;;;;;;;14.20;12.68;;;14.00;60.40;;;;;;4984011;28;117506;-81
2023/05/07 01:47:17;;;;;;;14.15;12.57;;;14.20;59.90;;;;;;4982884;28;114885;-81
2023/05/07 01:49:45;;;;;;;15.75;14.05;;;14.20;60.30;;;;;;4980225;28;114522;-81
2023/05/07 01:52:13;;;;;;;15.98;13.80;;;14.20;59.80;;;;;;4982466;28;114558;-82
2023/05/07 01:54:40;;;;;;;14.07;12.57;;;14.20;58.70;;;;;;4950535;28;117872;-82
2023/05/07 01:57:08;;;;;;;14.98;12.57;;;14.20;59.60;;;;;;5001493;28;114596;-81
2023/05/07 01:59:35;;;;;;;13.32;11.93;;;14.20;59.80;;;;;;5001368;28;114597;-81
2023/05/07 02:02:03;;;;;;;14.32;12.30;;;14.20;59.80;;;;;;4981625;28;114419;-83
2023/05/07 02:04:31;;;;;;;14.20;12.70;;;14.20;59.60;;;;;;4980642;28;118625;-82
2023/05/07 02:06:59;;;;;;;13.48;12.02;;;14.30;58.40;;;;;;5000652;28;119641;-83
2023/05/07 02:09:27;;;;;;;13.48;12.07;;;14.40;59.70;;;;;;5001550;28;114714;-82
2023/05/07 02:11:54;;;;;;;12.90;11.60;;;14.50;59.10;;;;;;4983947;28;114510;-81
2023/05/07 02:14:22;;;;;;;13.52;12.05;;;14.50;59.30;;;;;;4981355;28;114730;-80
2023/05/07 02:16:50;;;;;;;13.15;11.80;;;14.60;58.20;;;;;;4981064;28;117607;-82
2023/05/07 02:19:18;;;;;;;13.40;12.00;;;14.60;57.70;;;;;;4981546;28;114556;-81
2023/05/07 02:21:45;;;;;;;13.13;11.73;;;14.50;58.50;;;;;;4983732;28;114604;-81
2023/05/07 02:24:12;;;;;;;13.88;12.48;;;14.50;59.10;;;;;;4988483;28;115003;-82
2023/05/07 02:26:40;;;;;;;13.57;12.18;;;14.60;58.60;;;;;;4981192;28;115353;-82
2023/05/07 02:29:10;;;;;;;13.52;11.95;;;14.60;59.10;;;;;;4981647;28;114300;-83
2023/05/07 02:31:39;;;;;;;12.73;11.13;;;14.60;59.20;;;;;;4982762;28;114330;-82
2023/05/07 02:34:07;;;;;;;13.63;11.35;;;14.60;59.40;;;;;;4981246;28;114926;-82
2023/05/07 02:36:34;;;;;;;14.93;12.50;;;14.70;58.50;;;;;;5014591;28;115829;-80
2023/05/07 02:39:07;;;;;;;12.70;11.25;;;14.70;58.00;;;;;;4981981;28;114569;-80
2023/05/07 02:41:34;;;;;;;15.05;13.43;;;14.70;58.80;;;;;;4982686;28;114777;-83
2023/05/07 02:44:01;;;;;;;14.35;12.38;;;14.70;57.90;;;;;;4965732;28;114885;-82
2023/05/07 02:46:28;;;;;;;15.10;13.15;;;14.60;58.10;;;;;;5004901;28;114909;-82
2023/05/07 02:49:00;;;;;;;14.27;12.75;;;14.50;57.90;;;;;;4963017;28;114485;-81
2023/05/07 02:51:30;;;;;;;14.73;12.32;;;14.50;58.60;;;;;;4981272;28;114607;-81
2023/05/07 02:54:01;;;;;;;13.98;12.48;;;14.40;58.40;;;;;;4957080;28;118552;-82
2023/05/07 02:56:30;;;;;;;13.93;11.48;;;14.30;58.40;;;;;;4977054;28;115788;-82
2023/05/07 02:59:00;;;;;;;14.55;12.75;;;14.20;59.00;;;;;;4981998;28;114290;-81
2023/05/07 03:01:32;;;;;;;15.10;13.50;;;14.20;58.90;;;;;;4994376;28;114291;-81
2023/05/07 03:04:05;;;;;;;14.88;13.30;;;14.00;58.00;;;;;;5017193;28;114879;-81
2023/05/07 03:06:32;;;;;;;16.35;14.57;;;13.90;59.00;;;;;;4989745;28;114690;-80
2023/05/07 03:08:59;;;;;;;15.95;14.30;;;13.90;59.00;;;;;;4991965;28;114554;-81
2023/05/07 03:11:28;;;;;;;16.45;14.57;;;13.80;59.10;;;;;;4980635;28;114672;-81
2023/05/07 03:13:55;;;;;;;14.45;12.90;;;13.80;59.00;;;;;;4996374;28;115814;-80
2023/05/07 03:16:23;;;;;;;14.20;12.68;;;13.80;59.10;;;;;;5023618;28;114758;-81
2023/05/07 03:18:50;;;;;;;15.65;13.93;;;13.70;59.80;;;;;;5000580;28;114504;-82
2023/05/07 03:21:18;;;;;;;16.15;13.15;;;13.80;59.00;;;;;;5000820;28;114636;-81
2023/05/07 03:23:45;;;;;;;15.93;14.23;;;13.90;59.00;;;;;;4999601;28;115545;-81
2023/05/07 03:26:12;;;;;;;15.27;13.35;;;13.90;58.00;;;;;;5001386;28;114565;-81
2023/05/07 03:28:40;;;;;;;14.57;12.98;;;13.90;58.70;;;;;;5000936;28;114537;-81
2023/05/07 03:31:11;;;;;;;15.75;13.82;;;13.80;59.20;;;;;;4968101;28;114364;-81
2023/05/07 03:33:49;;;;;;;18.13;15.88;;;13.80;58.50;;;;;;5000712;28;116550;-81
2023/05/07 03:36:16;;;;;;;18.27;15.63;;;13.80;57.70;;;;;;5000539;28;114611;-83
2023/05/07 03:38:43;;;;;;;16.85;13.73;;;13.70;57.70;;;;;;5001920;28;114132;-81
2023/05/07 03:41:12;;;;;;;13.25;11.82;;;13.70;57.90;;;;;;4999772;28;114420;-82
2023/05/07 03:43:39;;;;;;;16.05;13.82;;;13.70;59.50;;;;;;4998288;28;115638;-82
2023/05/07 03:46:09;;;;;;;16.48;14.57;;;13.70;57.90;;;;;;4999791;28;114668;-82
2023/05/07 03:48:36;;;;;;;14.43;12.90;;;13.70;57.70;;;;;;5001015;28;114347;-81
2023/05/07 03:51:04;;;;;;;17.63;14.95;;;13.60;58.50;;;;;;4990867;28;114620;-82
2023/05/07 03:53:33;;;;;;;16.45;14.10;;;13.60;58.10;;;;;;4993341;28;116044;-82
2023/05/07 03:56:00;;;;;;;17.20;14.70;;;13.60;58.00;;;;;;5015894;28;114612;-82
2023/05/07 03:58:31;;;;;;;14.05;12.55;;;13.60;58.20;;;;;;5000548;28;114485;-82
2023/05/07 04:01:03;;;;;;;14.55;12.70;;;13.70;59.00;;;;;;5000784;28;114531;-82
2023/05/07 04:03:31;;;;;;;20.10;14.93;;;13.70;59.40;;;;;;4981738;28;114965;-82
2023/05/07 04:05:59;;;;;;;17.80;14.50;;;13.80;57.70;;;;;;4979789;28;114616;-82
2023/05/07 04:08:27;;;;;;;20.33;15.63;;;13.80;58.10;;;;;;4979870;28;114457;-82
2023/05/07 04:10:55;;;;;;;18.98;15.02;;;13.70;57.50;;;;;;4978017;28;114563;-82
2023/05/07 04:13:24;;;;;;;16.15;13.88;;;13.70;58.00;;;;;;4979940;28;114981;-81
2023/05/07 04:15:56;;;;;;;14.52;12.50;;;13.70;58.70;;;;;;4984918;28;114720;-82
2023/05/07 04:18:24;;;;;;;15.98;13.70;;;13.80;59.50;;;;;;4965505;28;114587;-81
2023/05/07 04:20:52;;;;;;;20.58;15.05;;;13.80;59.10;;;;;;5000930;28;114647;-82
2023/05/07 04:23:19;;;;;;;20.20;17.02;;;13.90;58.80;;;;;;5015976;28;115854;-82
2023/05/07 04:25:46;;;;;;;23.55;18.65;;;13.90;58.10;;;;;;4993954;28;119185;-82
2023/05/07 04:28:22;;;;;;;18.00;14.57;;;13.90;57.30;;;;;;4979685;28;114621;-82
2023/05/07 04:30:51;;;;;;;20.58;16.95;;;13.90;58.80;;;;;;4980755;28;114461;-83
2023/05/07 04:33:19;;;;;;;16.15;14.35;;;13.90;58.10;;;;;;4962831;28;115010;-83
2023/05/07 04:35:48;;;;;;;16.05;13.48;;;13.90;58.70;;;;;;4966185;28;118144;-82
2023/05/07 04:38:16;;;;;;;18.35;14.55;;;13.80;59.10;;;;;;4982966;28;114185;-82
2023/05/07 04:40:44;;;;;;;21.77;15.27;;;14.00;59.20;;;;;;4995350;28;114347;-82
2023/05/07 04:43:15;;;;;;;16.98;14.20;;;14.00;58.60;;;;;;4966705;28;116087;-83
2023/05/07 04:45:49;;;;;;;18.08;14.38;;;14.20;59.00;;;;;;4970506;28;114742;-82
2023/05/07 04:48:18;;;;;;;18.65;15.05;;;14.20;58.50;;;;;;4983722;28;115219;-83
2023/05/07 04:50:48;;;;;;;19.52;15.27;;;14.20;58.20;;;;;;4983781;28;114676;-82
2023/05/07 04:53:17;;;;;;;18.45;15.05;;;14.20;57.70;;;;;;4973395;28;115583;-82
2023/05/07 04:55:45;;;;;;;17.13;14.40;;;14.20;58.00;;;;;;4958540;28;117021;-81
2023/05/07 04:58:12;;;;;;;15.68;12.93;;;14.20;58.00;;;;;;4999854;28;114498;-81
2023/05/07 05:00:40;;;;;;;22.25;18.35;;;14.20;58.80;;;;;;4995475;28;114535;-81
2023/05/07 05:03:08;;;;;;;20.27;15.25;;;14.20;57.70;;;;;;4999162;28;114848;-81
2023/05/07 05:05:39;;;;;;;17.83;13.85;;;14.20;58.40;;;;;;4966979;28;115465;-81
2023/05/07 05:08:09;;;;;;;21.02;16.60;;;14.20;58.60;;;;;;4996674;28;114425;-81
2023/05/07 05:10:42;;;;;;;19.77;16.63;;;14.20;58.20;;;;;;4999685;28;114748;-81
2023/05/07 05:13:13;;;;;;;22.67;18.65;;;14.20;57.50;;;;;;4995518;28;116070;-82
2023/05/07 05:15:41;;;;;;;18.67;15.73;;;14.20;57.40;;;;;;4976520;28;116700;-80
2023/05/07 05:18:08;;;;;;;18.50;15.93;;;14.10;58.20;;;;;;4999181;28;114522;-81
2023/05/07 05:20:36;;;;;;;21.40;16.75;;;14.10;58.60;;;;;;4984975;28;118982;-81
2023/05/07 05:23:03;;;;;;;16.90;15.05;;;14.10;58.30;;;;;;4996938;28;114324;-81
2023/05/07 05:25:31;;;;;;;18.08;14.35;;;14.10;58.50;;;;;;4980626;28;114599;-81
2023/05/07 05:27:59;;;;;;;23.35;18.45;;;14.20;58.90;;;;;;4978751;28;114446;-81
2023/05/07 05:30:26;;;;;;;21.67;17.70;;;14.20;58.30;;;;;;4991293;28;114646;-81
2023/05/07 05:32:54;;;;;;;19.63;16.25;;;14.20;58.00;;;;;;4994332;28;114922;-81
2023/05/07 05:35:21;;;;;;;22.20;17.48;;;14.20;58.50;;;;;;4976251;28;114574;-80
2023/05/07 05:37:49;;;;;;;19.98;16.25;;;14.20;58.50;;;;;;4996359;28;114567;-80
2023/05/07 05:40:18;;;;;;;22.13;17.25;;;14.30;58.60;;;;;;5010499;28;114269;-81
2023/05/07 05:42:45;;;;;;;19.63;16.63;;;14.30;58.20;;;;;;4983677;28;114882;-80
2023/05/07 05:45:14;;;;;;;24.30;20.35;;;14.30;58.30;;;;;;4993196;28;114683;-80
2023/05/07 05:47:41;;;;;;;18.90;15.00;;;14.30;58.10;;;;;;4967587;28;114698;-81
2023/05/07 05:50:09;;;;;;;19.75;17.05;;;14.30;58.70;;;;;;4982906;28;114593;-81
2023/05/07 05:52:37;;;;;;;25.65;21.17;;;14.20;58.40;;;;;;5000578;28;114907;-81
2023/05/07 05:55:05;;;;;;;24.10;20.23;;;14.20;57.80;;;;;;5001067;28;116196;-81
2023/05/07 05:57:32;;;;;;;23.23;19.13;;;14.10;58.00;;;;;;4977825;28;114469;-81
2023/05/07 06:00:01;;;;;;;24.52;18.67;;;14.00;58.50;;;;;;4993011;28;114665;-80
2023/05/07 06:02:30;;;;;;;23.73;19.33;;;14.00;58.60;;;;;;4997380;28;116088;-82
2023/05/07 06:04:58;;;;;;;28.40;21.45;;;13.80;59.00;;;;;;4991271;28;114701;-81
2023/05/07 06:07:26;;;;;;;20.67;16.95;;;13.80;58.70;;;;;;4977856;28;115311;-81
2023/05/07 06:09:55;;;;;;;20.20;16.42;;;13.80;59.60;;;;;;4999921;28;115021;-80
2023/05/07 06:12:22;;;;;;;28.92;24.23;;;13.80;59.40;;;;;;4981182;28;114954;-80
2023/05/07 06:14:49;;;;;;;29.70;25.65;;;13.70;58.40;;;;;;4997734;28;115086;-81
2023/05/07 06:17:17;;;;;;;27.33;22.35;;;13.60;58.40;;;;;;4994804;28;114464;-81
2023/05/07 06:19:48;;;;;;;26.05;21.48;;;13.50;59.10;;;;;;4965095;28;114496;-82
2023/05/07 06:22:18;;;;;;;24.35;20.88;;;13.50;59.80;;;;;;4963357;28;115623;-81
2023/05/07 06:24:46;;;;;;;25.92;21.58;;;13.50;60.20;;;;;;4962948;28;114616;-81
2023/05/07 06:27:13;;;;;;;24.17;19.77;;;13.60;59.60;;;;;;4967426;28;114586;-81
2023/05/07 06:29:42;;;;;;;28.98;24.00;;;13.60;59.60;;;;;;4991265;28;114625;-81
2023/05/07 06:32:14;;;;;;;27.10;21.33;;;13.60;58.90;;;;;;4992801;28;114946;-82
2023/05/07 06:34:43;;;;;;;26.67;21.55;;;13.50;59.10;;;;;;4990460;28;116742;-81
2023/05/07 06:37:11;;;;;;;24.23;21.02;;;13.30;59.50;;;;;;4985771;28;114293;-81
2023/05/07 06:40:08;;;;;;;26.83;22.65;;;13.30;60.30;;;;;;4988944;28;114663;-81
2023/05/07 06:42:38;;;;;;;20.30;17.13;;;13.40;59.20;;;;;;4993758;28;114817;-82
2023/05/07 06:45:38;;;;;;;17.58;14.43;;;13.30;59.10;;;;;;4951386;28;115721;-81
2023/05/07 06:48:10;;;;;;;17.95;14.98;;;13.20;59.50;;;;;;4989696;28;114384;-82
2023/05/07 06:50:46;;;;;;;19.30;16.00;;;13.20;59.70;;;;;;4979959;28;114776;-82
2023/05/07 06:53:15;;;;;;;19.55;15.70;;;13.20;60.10;;;;;;5007931;28;116104;-82
2023/05/07 06:55:42;;;;;;;16.85;14.57;;;13.20;60.30;;;;;;4990556;28;114613;-81
2023/05/07 06:58:11;;;;;;;17.15;15.35;;;13.20;59.70;;;;;;4997160;28;114334;-82
2023/05/07 07:00:38;;;;;;;16.65;14.27;;;13.20;60.10;;;;;;4975689;28;114359;-81
2023/05/07 07:03:06;;;;;;;17.25;14.45;;;13.20;59.40;;;;;;4989015;28;114808;-82
2023/05/07 07:05:33;;;;;;;16.73;13.93;;;13.20;59.70;;;;;;4989116;28;115435;-81
2023/05/07 07:08:02;;;;;;;15.77;12.55;;;13.20;59.80;;;;;;4961992;28;115025;-81
2023/05/07 07:10:30;;;;;;;17.42;14.35;;;13.20;58.80;;;;;;5008190;28;114691;-82
2023/05/07 07:12:58;;;;;;;15.23;13.35;;;13.30;59.70;;;;;;4974958;28;117020;-81
2023/05/07 07:15:26;;;;;;;14.18;12.43;;;13.40;58.30;;;;;;4987244;28;115866;-82
2023/05/07 07:17:55;;;;;;;17.45;13.98;;;13.40;58.20;;;;;;4995214;28;114516;-81
2023/05/07 07:20:23;;;;;;;15.90;13.13;;;13.30;59.10;;;;;;4986203;28;114321;-82
2023/05/07 07:22:51;;;;;;;15.07;13.43;;;13.30;59.20;;;;;;4981957;28;115438;-82
2023/05/07 07:25:18;;;;;;;15.40;13.30;;;13.30;59.20;;;;;;4994454;28;115118;-82
2023/05/07 07:27:48;;;;;;;16.75;14.60;;;13.40;59.10;;;;;;4965007;28;114321;-82
2023/05/07 07:30:16;;;;;;;13.63;12.23;;;13.40;59.60;;;;;;4981359;28;114559;-81
2023/05/07 07:32:46;;;;;;;13.70;12.20;;;13.30;58.20;;;;;;5021135;28;115460;-82
2023/05/07 07:35:14;;;;;;;14.70;13.13;;;13.30;58.80;;;;;;4996280;28;115802;-82
2023/05/07 07:37:42;;;;;;;16.58;14.07;;;13.20;58.50;;;;;;4989024;28;114487;-81
2023/05/07 07:40:11;;;;;;;13.88;12.10;;;13.20;59.80;;;;;;4983809;28;114757;-81
2023/05/07 07:42:39;;;;;;;17.90;13.63;;;13.20;58.40;;;;;;4999791;28;115819;-81
2023/05/07 07:45:07;;;;;;;15.23;13.63;;;13.20;59.00;;;;;;4999440;28;115449;-80
2023/05/07 07:47:40;;;;;;;16.95;14.35;;;13.20;59.00;;;;;;4996150;28;117271;-80
2023/05/07 07:50:08;;;;;;;18.80;15.05;;;13.20;59.20;;;;;;4999922;28;114610;-81
2023/05/07 07:52:36;;;;;;;18.23;15.15;;;13.10;59.80;;;;;;4980428;28;115381;-81
2023/05/07 07:55:04;;;;;;;18.58;14.90;;;13.20;59.00;;;;;;4971647;27;114859;-81
2023/05/07 07:57:32;;;;;;;18.33;15.23;;;13.20;59.30;;;;;;5014506;28;114659;-81
2023/05/07 08:00:00;;;;;;;18.92;14.93;;;13.20;59.50;;;;;;5020295;28;114481;-80
2023/05/07 08:02:31;;;;;;;18.10;14.98;;;13.30;59.50;;;;;;5013110;28;116841;-82
2023/05/07 08:04:58;;;;;;;16.83;14.95;;;13.30;58.30;;;;;;5017697;28;115504;-81
2023/05/07 08:07:26;;;;;;;19.58;15.40;;;13.30;58.20;;;;;;5002351;28;114718;-81
2023/05/07 08:09:53;;;;;;;18.27;15.45;;;13.30;58.70;;;;;;5016929;27;114571;-81
2023/05/07 08:12:23;;;;;;;19.65;15.02;;;13.20;58.80;;;;;;4998617;28;114907;-81
2023/05/07 08:14:50;;;;;;;20.65;16.00;;;13.20;58.50;;;;;;4986800;28;114722;-83
2023/05/07 08:17:18;;;;;;;22.70;16.25;;;13.10;58.60;;;;;;5033234;27;114595;-82
2023/05/07 08:19:46;;;;;;;21.55;16.30;;;13.00;59.30;;;;;;5018551;27;115561;-81
2023/05/07 08:22:14;;;;;;;22.40;17.92;;;13.00;59.40;;;;;;5018589;27;119060;-81
2023/05/07 08:24:41;;;;;;;20.52;17.10;;;13.00;58.90;;;;;;5001228;28;115869;-81
2023/05/07 08:27:10;;;;;;;23.00;17.60;;;13.00;59.40;;;;;;4998703;28;114907;-82
2023/05/07 08:29:39;;;;;;;23.60;16.92;;;13.00;59.60;;;;;;5013450;27;115787;-80
2023/05/07 08:32:07;;;;;;;22.25;17.67;;;12.90;59.70;;;;;;5019021;27;115072;-80
2023/05/07 08:34:34;;;;;;;22.75;16.83;;;12.80;59.60;;;;;;5017761;28;114641;-81
2023/05/07 08:37:04;;;;;;;19.73;15.77;;;12.90;59.20;;;;;;5002813;28;116468;-83
2023/05/07 08:39:32;;;;;;;22.90;19.02;;;12.80;60.20;;;;;;5001398;28;114554;-82
2023/05/07 08:42:01;;;;;;;23.23;19.05;;;12.80;59.60;;;;;;5030298;27;116097;-82
2023/05/07 08:44:29;;;;;;;18.85;16.75;;;12.80;59.90;;;;;;5017114;27;114756;-81
2023/05/07 08:46:57;;;;;;;21.85;17.77;;;12.70;60.00;;;;;;4986912;28;117600;-81
2023/05/07 08:49:26;;;;;;;20.35;17.45;;;12.70;60.20;;;;;;5000980;28;114714;-82
2023/05/07 08:51:53;;;;;;;21.90;19.50;;;12.60;60.90;;;;;;4981190;28;119191;-81
2023/05/07 08:54:20;;;;;;;22.42;18.77;;;12.60;60.30;;;;;;4984676;28;114761;-81
2023/05/07 08:56:48;;;;;;;21.23;18.90;;;12.50;60.60;;;;;;4984046;28;114669;-81
2023/05/07 08:59:15;;;;;;;20.38;18.23;;;12.40;60.40;;;;;;5019106;28;114618;-82
2023/05/07 09:01:43;;;;;;;22.42;20.00;;;12.30;60.80;;;;;;5034921;27;115152;-81
2023/05/07 09:04:12;;;;;;;20.13;17.88;;;12.40;60.60;;;;;;5012110;28;115111;-81
2023/05/07 09:06:41;;;;;;;21.27;19.00;;;12.40;60.40;;;;;;4998221;28;114756;-80
2023/05/07 09:09:11;;;;;;;20.75;18.50;;;12.40;60.90;;;;;;4998459;28;114502;-81
2023/05/07 09:11:38;;;;;;;20.23;17.80;;;12.40;60.70;;;;;;4981119;28;116268;-81
2023/05/07 09:14:06;;;;;;;23.73;21.33;;;12.30;60.60;;;;;;4981217;28;114542;-80
2023/05/07 09:16:39;;;;;;;21.88;18.55;;;12.20;60.30;;;;;;4998462;28;114576;-80
2023/05/07 09:19:06;;;;;;;27.23;22.50;;;12.20;61.40;;;;;;4965516;28;114686;-80
2023/05/07 09:21:34;;;;;;;23.45;20.95;;;12.30;60.40;;;;;;4998093;28;114826;-81
2023/05/07 09:24:05;;;;;;;20.23;17.73;;;12.40;60.30;;;;;;4969502;28;115732;-81
2023/05/07 09:26:37;;;;;;;20.77;18.15;;;12.50;60.20;;;;;;4985686;28;114452;-81
2023/05/07 09:29:06;;;;;;;20.48;18.02;;;12.30;60.10;;;;;;5020476;28;114472;-81
2023/05/07 09:31:37;;;;;;;19.25;17.23;;;12.40;60.80;;;;;;4996209;28;115459;-81
2023/05/07 09:34:06;;;;;;;19.02;17.02;;;12.40;60.60;;;;;;5018410;28;115392;-81
2023/05/07 09:36:35;;;;;;;18.88;16.80;;;12.50;61.00;;;;;;4984386;28;114430;-81
2023/05/07 09:39:03;;;;;;;20.85;17.33;;;12.60;60.30;;;;;;5013509;28;114539;-81
2023/05/07 09:41:33;;;;;;;17.45;15.60;;;12.60;60.20;;;;;;4993112;28;114907;-82
2023/05/07 09:44:15;;;;;;;17.05;15.25;;;12.50;60.40;;;;;;5025846;27;115103;-79
2023/05/07 09:46:55;;;;;;;16.70;14.90;;;12.40;60.10;;;;;;4994939;28;114342;-81
2023/05/07 09:49:37;;;;;;;16.58;14.65;;;12.40;60.40;;;;;;5017371;28;114738;-80
2023/05/07 09:52:10;;;;;;;17.77;15.30;;;12.20;60.80;;;;;;4995288;28;115134;-81
2023/05/07 09:54:43;;;;;;;18.75;14.85;;;12.30;61.70;;;;;;5003573;28;114679;-80
2023/05/07 09:57:14;;;;;;;17.38;15.57;;;12.50;60.10;;;;;;4999160;28;114244;-80
2023/05/07 09:59:44;;;;;;;18.15;14.60;;;12.50;59.50;;;;;;4981119;28;115990;-81
2023/05/07 10:02:14;;;;;;;14.68;13.15;;;12.50;59.80;;;;;;4983967;28;118887;-82
2023/05/07 10:04:46;;;;;;;13.38;11.82;;;12.40;58.70;;;;;;5012180;28;114627;-81
2023/05/07 10:07:16;;;;;;;15.40;13.45;;;12.40;59.00;;;;;;5003865;27;114584;-80
2023/05/07 10:09:46;;;;;;;13.77;12.00;;;12.30;59.60;;;;;;5010526;28;115324;-80
2023/05/07 10:12:37;;;;;;;13.48;12.10;;;12.40;59.30;;;;;;4987937;28;115829;-81
2023/05/07 10:15:11;;;;;;;11.73;10.52;;;12.40;59.10;;;;;;4994111;28;115397;-81
2023/05/07 10:17:41;;;;;;;12.80;11.50;;;12.40;58.60;;;;;;5024351;27;114675;-79
2023/05/07 10:20:10;;;;;;;11.40;10.30;;;12.20;58.90;;;;;;5011510;28;114696;-80
2023/05/07 10:22:48;;;;;;;12.23;10.93;;;12.20;58.50;;;;;;5009385;28;114928;-80
2023/05/07 10:25:30;;;;;;;13.50;12.10;;;12.10;59.20;;;;;;4976829;28;114752;-81
2023/05/07 10:28:07;;;;;;;12.50;11.23;;;12.00;60.10;;;;;;4988216;28;114677;-80
2023/05/07 10:30:55;;;;;;;11.38;10.27;;;12.00;59.50;;;;;;4979832;27;114541;-80
2023/05/07 10:33:26;;;;;;;12.98;11.63;;;12.10;58.70;;;;;;5009310;28;116886;-81
2023/05/07 10:35:58;;;;;;;12.07;10.60;;;12.00;58.70;;;;;;4997071;28;116187;-82
2023/05/07 10:38:27;;;;;;;12.32;11.02;;;11.90;59.50;;;;;;4995211;28;116645;-80
2023/05/07 10:40:54;;;;;;;12.20;10.70;;;11.90;59.00;;;;;;4987112;28;114588;-81
2023/05/07 10:43:23;;;;;;;14.85;13.32;;;11.90;59.80;;;;;;4974446;28;114874;-81
2023/05/07 10:46:17;;;;;;;12.65;11.40;;;11.90;58.70;;;;;;4995688;28;116150;-81
2023/05/07 10:49:05;;;;;;;12.07;10.73;;;11.90;58.50;;;;;;5028391;27;114345;-81
2023/05/07 10:51:40;;;;;;;12.30;10.25;;;11.80;59.70;;;;;;5009605;28;114599;-81
2023/05/07 10:54:22;;;;;;;10.43;9.40;;;11.70;59.20;;;;;;5012680;28;114859;-81
2023/05/07 10:57:32;;;;;;;11.88;10.55;;;11.70;59.80;;;;;;5009596;28;114850;-80
2023/05/07 11:00:25;;;;;;;11.07;9.70;;;11.80;59.20;;;;;;5009955;28;114448;-79
2023/05/07 11:03:11;;;;;;;11.40;10.30;;;11.90;59.80;;;;;;5000214;28;114535;-80
2023/05/07 11:05:48;;;;;;;11.50;10.30;;;12.00;58.60;;;;;;5028825;27;114915;-81
2023/05/07 11:08:22;;;;;;;11.57;10.38;;;12.00;59.10;;;;;;4995274;27;114869;-80
2023/05/07 11:11:04;;;;;;;10.57;9.52;;;12.00;59.90;;;;;;5015442;27;114568;-81
2023/05/07 11:13:44;;;;;;;10.60;9.48;;;12.00;58.70;;;;;;5035117;27;114457;-82
2023/05/07 11:16:19;;;;;;;11.93;10.43;;;11.90;57.80;;;;;;5014905;28;114740;-81
2023/05/07 11:18:54;;;;;;;11.30;10.20;;;11.80;59.30;;;;;;5014482;28;115276;-81
2023/05/07 11:21:38;;;;;;;11.57;10.38;;;11.80;58.90;;;;;;4997365;28;114626;-81
2023/05/07 11:24:10;;;;;;;11.00;9.88;;;11.80;58.20;;;;;;4999830;28;114362;-80
2023/05/07 11:26:49;;;;;;;12.13;10.93;;;11.70;58.70;;;;;;4997758;28;114931;-81
2023/05/07 11:29:19;;;;;;;13.50;12.13;;;11.70;58.70;;;;;;5012999;28;114617;-81
2023/05/07 11:31:55;;;;;;;14.32;11.88;;;11.70;58.40;;;;;;4978270;28;114662;-81
2023/05/07 11:34:26;;;;;;;12.35;11.05;;;11.50;58.60;;;;;;4995410;28;114548;-82
2023/05/07 11:36:57;;;;;;;13.27;11.90;;;11.50;59.20;;;;;;5014125;28;114892;-80
2023/05/07 11:39:36;;;;;;;13.80;12.30;;;11.60;59.10;;;;;;4985143;28;114631;-80
2023/05/07 11:42:04;;;;;;;16.83;12.60;;;11.60;59.10;;;;;;5012378;28;114541;-80
2023/05/07 11:44:45;;;;;;;16.30;13.40;;;11.70;59.20;;;;;;5011775;28;114526;-80
2023/05/07 11:47:18;;;;;;;12.85;11.55;;;11.70;58.30;;;;;;4992634;28;114858;-80
2023/05/07 11:49:49;;;;;;;13.93;12.38;;;11.50;59.70;;;;;;4983511;28;114605;-80
2023/05/07 11:52:17;;;;;;;13.48;11.98;;;11.60;59.70;;;;;;5011782;28;115449;-80
2023/05/07 11:54:56;;;;;;;17.25;14.98;;;11.60;59.90;;;;;;5004184;28;114193;-79
2023/05/07 11:57:23;;;;;;;15.43;13.70;;;11.70;58.00;;;;;;5003531;28;115798;-79
2023/05/07 11:59:57;;;;;;;17.05;15.35;;;11.60;59.50;;;;;;5016779;28;114977;-82
2023/05/07 12:02:25;;;;;;;16.35;14.32;;;11.70;58.50;;;;;;5019272;28;114690;-80
2023/05/07 12:04:52;;;;;;;16.63;14.80;;;11.50;58.50;;;;;;5003630;28;115922;-81
2023/05/07 12:07:21;;;;;;;17.63;15.48;;;11.50;58.60;;;;;;4994694;28;118508;-81
2023/05/07 12:09:48;;;;;;;16.50;14.45;;;11.50;58.60;;;;;;5015323;28;117332;-81
2023/05/07 12:12:17;;;;;;;16.25;14.52;;;11.50;58.90;;;;;;5019509;28;114710;-81
2023/05/07 12:14:45;;;;;;;15.23;12.80;;;11.60;58.50;;;;;;5008086;27;117475;-81
2023/05/07 12:17:12;;;;;;;13.82;12.43;;;11.60;58.90;;;;;;5018682;28;114984;-81
2023/05/07 12:19:41;;;;;;;15.15;12.43;;;11.70;58.10;;;;;;5015570;28;114656;-81
2023/05/07 12:22:08;;;;;;;15.60;13.20;;;11.60;59.10;;;;;;5016747;28;114574;-81
2023/05/07 12:24:49;;;;;;;11.75;10.50;;;11.70;59.00;;;;;;5020175;28;114425;-80
2023/05/07 12:27:16;;;;;;;11.13;10.02;;;11.90;57.80;;;;;;5018595;28;118160;-81
2023/05/07 12:29:47;;;;;;;10.68;9.57;;;11.60;57.30;;;;;;4983791;28;114951;-80
2023/05/07 12:32:19;;;;;;;11.23;10.10;;;11.30;58.10;;;;;;5006699;28;114391;-80